CDT,Max TemperatureF,Mean TemperatureF,Min TemperatureF,Max Dew PointF,MeanDew PointF,Min DewpointF,Max Humidity, Mean Humidity, Min Humidity, Max Sea Level PressureIn, Mean Sea Level PressureIn, Min Sea Level PressureIn, Max VisibilityMiles, Mean VisibilityMiles, Min VisibilityMiles, Max Wind SpeedMPH, Mean Wind SpeedMPH, Max Gust SpeedMPH,PrecipitationIn, CloudCover, Events, WindDirDegrees
2013-10-1,81,65,49,57,52,42,89,60,31,29.99,29.83,29.72,10,10,10,17,7,21,0.00,0,,206
2013-10-2,79,62,45,50,46,38,100,62,24,30.12,30.02,29.86,10,8,0,13,5,15,0.00,1,Fog,140
2013-10-3,70,64,58,63,60,52,93,76,58,29.93,29.84,29.80,10,8,2,22,4,28,0.67,6,Rain-Thunderstorm,352
2013-10-4,67,64,60,63,59,57,97,89,81,29.96,29.90,29.84,10,7,2,24,7,31,1.47,8,Rain-Thunderstorm,55
2013-10-5,72,61,49,65,58,41,93,75,57,29.90,29.80,29.71,10,8,1,30,6,36,1.04,7,Rain-Thunderstorm,159
2013-10-6,56,50,43,48,41,35,89,70,50,29.78,29.74,29.70,10,10,5,24,5,29,0.07,6,Rain,234
2013-10-7,68,56,44,47,45,41,92,65,37,30.05,29.91,29.78,10,9,2,23,5,28,T,1,Rain,343
2013-10-8,78,62,45,49,45,42,93,63,33,30.07,30.02,29.96,10,10,10,21,10,28,0.00,0,,154
2013-10-9,75,63,51,50,47,45,77,58,38,30.12,30.09,30.03,10,10,10,17,8,22,0.00,0,,154
2013-10-10,74,61,47,50,47,43,86,64,41,30.12,30.05,29.96,10,10,10,13,6,16,0.00,0,,144
2013-10-11,78,66,53,56,52,48,83,62,40,29.97,29.87,29.76,10,10,10,28,12,35,0.00,2,,142
2013-10-12,70,57,44,56,44,35,77,58,39,30.19,29.94,29.76,10,10,9,24,10,33,0.00,2,,242
2013-10-13,63,52,40,40,37,34,89,62,34,30.43,30.37,30.22,10,10,10,12,3,15,0.00,0,,248
2013-10-14,64,50,36,42,38,33,92,67,42,30.44,30.30,30.04,10,10,10,17,7,23,0.03,1,,118
2013-10-15,62,56,49,54,47,42,93,77,61,30.01,29.79,29.73,10,9,4,21,10,26,0.31,8,Rain,188
2013-10-16,52,46,39,48,43,37,92,82,71,29.95,29.87,29.75,10,10,10,17,8,22,T,7,,304
2013-10-17,60,49,37,42,38,35,100,70,40,29.94,29.87,29.80,10,5,0,12,5,15,0.01,4,Fog-Rain,160
2013-10-18,54,46,38,43,37,29,86,64,41,29.96,29.89,29.81,10,10,10,24,10,31,T,5,Rain,287
2013-10-19,51,43,34,40,36,32,92,77,61,29.90,29.79,29.71,10,10,8,24,7,32,0.04,6,Rain,232
2013-10-20,52,43,33,41,36,30,92,79,66,29.85,29.77,29.67,10,10,10,25,10,31,0.07,6,Rain,180
2013-10-21,42,36,29,35,26,21,85,67,48,29.99,29.94,29.86,10,10,9,23,12,29,0.01,6,Rain-Snow,292
2013-10-22,48,36,24,30,27,22,85,67,49,30.04,30.00,29.94,10,10,10,15,6,18,0.00,3,,319
2013-10-23,44,36,28,32,27,21,92,68,43,30.09,30.04,29.99,10,10,10,17,8,21,T,7,,321
2013-10-24,45,37,29,27,24,20,85,65,45,30.35,30.23,30.09,10,10,10,17,10,21,0.00,7,,312
2013-10-25,54,42,29,32,29,26,85,60,35,30.37,30.17,29.82,10,10,10,32,15,43,0.00,3,,191
2013-10-26,53,45,36,36,31,28,70,56,41,30.10,29.97,29.78,10,10,10,28,12,35,0.00,5,,289
2013-10-27,61,46,31,34,30,27,89,61,32,30.10,29.97,29.84,10,10,10,17,8,23,0.00,0,,178
2013-10-28,45,41,36,31,27,25,70,60,49,30.43,30.34,30.12,10,10,10,17,7,23,0.00,5,,63
2013-10-29,54,46,38,38,32,26,71,61,50,30.42,30.27,30.09,10,10,10,10,4,,0.00,6,,96
2013-10-30,58,52,46,52,47,39,93,82,71,30.09,29.89,29.70,10,8,2,13,4,15,0.01,7,Rain,125
2013-10-31,54,49,43,52,47,37,100,88,76,29.69,29.50,29.37,10,4,0,17,7,23,0.11,8,Fog-Rain-Thunderstorm,300